Time;durP1;ratioP1;P1;durP2;ratioP2;P2;SDS_P1;SDS_P2;PMS_P1;PMS_P2;Temp;Humidity;BMP_temperature;BMP_pressure;BME280_temperature;BME280_humidity;BME280_pressure;Samples;Min_cycle;Max_cycle;Signal;HPM_P1;HPM_P2
2022/01/13 00:01:47;;;;;;;;;33.50;31.00;;;;;3.90;83.81;103263.94;5076730;28;45408;-77
2022/01/13 00:04:13;;;;;;;;;30.00;26.25;;;;;3.91;83.51;103260.53;5075533;28;46101;-76
2022/01/13 00:06:40;;;;;;;;;28.00;23.75;;;;;3.81;83.65;103242.56;5075745;28;45411;-76
2022/01/13 00:09:06;;;;;;;;;37.50;27.50;;;;;3.86;83.91;103256.78;5072106;28;45429;-76
2022/01/13 00:11:32;;;;;;;;;30.50;26.00;;;;;3.87;84.24;103258.56;5056983;28;45519;-77
2022/01/13 00:20:19;;;;;;;;;31.25;21.25;;;;;3.74;84.00;103252.72;5069326;28;45396;-76
2022/01/13 00:24:46;;;;;;;;;33.50;28.00;;;;;3.72;84.30;103249.13;5080875;27;45886;-75
2022/01/13 00:27:14;;;;;;;;;26.50;24.50;;;;;3.71;84.70;103251.69;5075649;27;45410;-76
2022/01/13 00:29:43;;;;;;;;;38.25;29.75;;;;;3.66;85.07;103248.81;5069786;28;45372;-76
2022/01/13 00:32:10;;;;;;;;;29.75;24.75;;;;;3.69;84.81;103248.97;5075732;27;45554;-77
2022/01/13 00:34:35;;;;;;;;;27.50;23.75;;;;;3.65;84.92;103246.13;5072046;28;46441;-77
2022/01/13 00:37:01;;;;;;;;;31.50;28.00;;;;;3.66;84.75;103253.13;5072806;28;45475;-76
2022/01/13 00:39:27;;;;;;;;;30.25;20.75;;;;;3.64;85.11;103249.56;5057432;28;45377;-75
2022/01/13 00:41:53;;;;;;;;;27.50;21.75;;;;;3.66;84.70;103246.22;5056587;28;45418;-77
2022/01/13 00:44:21;;;;;;;;;28.00;26.25;;;;;3.65;84.81;103251.38;5078277;28;45421;-76
2022/01/13 00:46:57;;;;;;;;;28.75;24.75;;;;;3.61;84.63;103239.81;5079385;28;45503;-76
2022/01/13 00:49:23;;;;;;;;;29.50;21.75;;;;;3.63;85.12;103251.28;5058509;28;45449;-78
2022/01/13 00:51:48;;;;;;;;;23.50;22.00;;;;;3.68;84.95;103255.03;5055597;28;45441;-78
2022/01/13 00:54:14;;;;;;;;;34.25;26.50;;;;;3.74;85.28;103246.59;5055204;28;45449;-79
2022/01/13 00:56:40;;;;;;;;;31.75;21.75;;;;;3.68;84.91;103236.72;5055708;28;45382;-78
2022/01/13 00:59:09;;;;;;;;;26.50;22.75;;;;;3.72;84.55;103240.41;5054963;28;45533;-77
2022/01/13 01:01:37;;;;;;;;;26.25;24.25;;;;;3.74;85.09;103246.59;5055734;28;45516;-78
2022/01/13 01:04:04;;;;;;;;;32.00;20.00;;;;;3.74;85.20;103241.38;5067522;28;46261;-76
2022/01/13 01:06:30;;;;;;;;;25.25;21.50;;;;;3.77;85.12;103240.63;5075725;28;45401;-78
2022/01/13 01:08:56;;;;;;;;;24.00;20.50;;;;;3.71;84.97;103236.88;5069927;28;45479;-78
2022/01/13 01:11:25;;;;;;;;;26.75;21.00;;;;;3.65;84.87;103219.97;5055491;28;45388;-77
2022/01/13 01:13:51;;;;;;;;;26.75;18.75;;;;;3.78;84.46;103245.94;5058256;28;45638;-77
2022/01/13 01:16:18;;;;;;;;;21.50;17.00;;;;;3.71;84.81;103236.88;5060174;28;45417;-77
2022/01/13 01:18:53;;;;;;;;;24.75;23.25;;;;;3.80;84.93;103246.03;5061034;28;45433;-76
2022/01/13 01:26:46;;;;;;;;;31.00;23.50;;;;;3.77;84.88;103245.88;5075062;27;45909;-76
2022/01/13 01:29:22;;;;;;;;;24.25;20.00;;;;;3.76;85.01;103244.06;5075485;28;45498;-77
2022/01/13 01:31:51;;;;;;;;;22.00;18.75;;;;;3.73;85.15;103244.78;5057192;27;45629;-75
2022/01/13 01:36:45;;;;;;;;;26.75;18.25;;;;;3.76;85.19;103247.56;5055055;28;45322;-77
2022/01/13 01:39:11;;;;;;;;;26.50;18.00;;;;;3.73;84.48;103245.72;5071164;28;45420;-75
2022/01/13 01:41:43;;;;;;;;;19.50;15.25;;;;;3.76;84.40;103244.06;5059092;28;45400;-76
2022/01/13 01:44:11;;;;;;;;;21.50;18.50;;;;;3.79;84.70;103244.22;5063463;28;45465;-75
2022/01/13 01:46:39;;;;;;;;;21.25;15.75;;;;;3.81;84.49;103247.78;5076363;28;45370;-76
2022/01/13 01:49:15;;;;;;;;;17.75;16.25;;;;;3.76;84.67;103238.81;5077363;28;45383;-76
2022/01/13 01:51:41;;;;;;;;;19.00;15.25;;;;;3.74;84.53;103247.50;5063669;28;45445;-77
2022/01/13 01:54:06;;;;;;;;;18.25;17.75;;;;;3.73;84.62;103250.03;5062833;28;45517;-77
2022/01/13 01:56:32;;;;;;;;;20.75;19.00;;;;;3.64;85.19;103239.97;5073189;28;45496;-75
2022/01/13 01:59:01;;;;;;;;;19.75;18.25;;;;;3.64;85.28;103242.59;5075196;27;45513;-76
2022/01/13 02:01:27;;;;;;;;;17.50;13.50;;;;;3.61;84.45;103252.91;5061265;27;45424;-75
2022/01/13 02:03:53;;;;;;;;;22.00;19.00;;;;;3.61;84.23;103255.53;5054644;28;46704;-76
2022/01/13 02:06:19;;;;;;;;;14.50;12.25;;;;;3.58;84.16;103251.88;5054379;28;45382;-76
2022/01/13 02:08:44;;;;;;;;;15.75;13.00;;;;;3.52;84.15;103249.81;5054734;28;45456;-77
2022/01/13 02:11:10;;;;;;;;;24.50;16.50;;;;;3.54;84.55;103262.16;5053875;28;45430;-77
2022/01/13 02:13:36;;;;;;;;;17.00;12.50;;;;;3.44;84.63;103259.00;5056739;28;46885;-75
2022/01/13 02:16:05;;;;;;;;;9.75;9.75;;;;;3.41;84.23;103267.56;5054743;28;45425;-76
2022/01/13 02:18:33;;;;;;;;;15.00;11.50;;;;;3.40;84.96;103257.03;5057909;28;45583;-77
2022/01/13 02:21:00;;;;;;;;;16.00;15.75;;;;;3.37;85.03;103260.38;5058490;28;45483;-76
2022/01/13 02:23:37;;;;;;;;;17.00;14.00;;;;;3.31;84.66;103270.50;5053657;28;46048;-77
2022/01/13 02:26:05;;;;;;;;;15.25;12.75;;;;;3.29;85.71;103270.44;5052957;27;45410;-78
2022/01/13 02:28:31;;;;;;;;;16.25;12.50;;;;;3.22;85.70;103260.50;5074051;28;45516;-77
2022/01/13 02:30:57;;;;;;;;;15.75;15.00;;;;;3.15;85.58;103260.97;5066063;28;45379;-77
2022/01/13 02:33:22;;;;;;;;;19.00;15.00;;;;;3.12;85.73;103266.94;5053704;28;45338;-75
2022/01/13 02:35:48;;;;;;;;;18.25;18.00;;;;;3.15;86.37;103263.59;5052857;28;45493;-76
2022/01/13 02:38:14;;;;;;;;;15.75;13.00;;;;;3.09;86.20;103268.50;5054307;28;45516;-76
2022/01/13 02:40:39;;;;;;;;;10.00;10.00;;;;;3.09;85.98;103263.25;5053628;28;45509;-77
2022/01/13 02:43:05;;;;;;;;;14.75;14.50;;;;;3.08;86.48;103256.22;5069398;28;46545;-77
2022/01/13 02:45:37;;;;;;;;;15.25;11.00;;;;;3.14;86.52;103259.16;5073957;27;45398;-76
2022/01/13 02:50:28;;;;;;;;;20.50;15.50;;;;;3.13;87.01;103244.31;5073360;27;45558;-76
2022/01/13 02:52:54;;;;;;;;;31.75;18.00;;;;;3.16;86.35;103245.38;5058589;28;45475;-76
2022/01/13 02:55:19;;;;;;;;;18.25;14.50;;;;;3.17;85.42;103249.78;5054277;28;45390;-76
2022/01/13 02:57:44;;;;;;;;;12.00;10.75;;;;;3.18;85.59;103248.06;5053152;28;45500;-76
2022/01/13 03:00:15;;;;;;;;;21.75;13.50;;;;;3.22;85.52;103250.03;5054529;28;45502;-76
2022/01/13 03:02:43;;;;;;;;;12.75;12.00;;;;;3.12;85.57;103258.19;5064646;28;46108;-76
2022/01/13 03:05:12;;;;;;;;;19.00;17.00;;;;;3.06;85.34;103247.41;5075414;27;45590;-76
2022/01/13 03:07:38;;;;;;;;;21.75;13.00;;;;;3.05;85.36;103261.28;5075457;27;45478;-76
2022/01/13 03:10:03;;;;;;;;;13.25;8.00;;;;;3.02;85.82;103251.56;5065032;27;45540;-76
2022/01/13 03:12:31;;;;;;;;;11.75;10.50;;;;;3.02;86.09;103254.19;5072900;28;45519;-76
2022/01/13 03:14:57;;;;;;;;;20.00;15.00;;;;;2.99;85.60;103252.31;5083954;27;45388;-76
2022/01/13 03:17:23;;;;;;;;;8.25;4.75;;;;;2.98;85.53;103250.50;5078605;27;45397;-76
2022/01/13 03:19:48;;;;;;;;;13.50;11.50;;;;;2.96;85.40;103244.31;5079284;27;45304;-77
2022/01/13 03:22:14;;;;;;;;;16.50;14.50;;;;;2.92;85.96;103260.63;5067957;27;45969;-76
2022/01/13 03:24:40;;;;;;;;;19.00;15.50;;;;;2.92;85.52;103249.31;5063428;27;45443;-76
2022/01/13 03:27:07;;;;;;;;;12.25;11.75;;;;;2.95;85.06;103239.00;5057495;28;45507;-76
2022/01/13 03:29:32;;;;;;;;;16.00;16.00;;;;;2.97;85.68;103243.47;5056796;28;45384;-77
2022/01/13 03:31:59;;;;;;;;;14.00;9.75;;;;;2.99;85.34;103244.47;5058771;28;46655;-77
2022/01/13 03:34:24;;;;;;;;;12.75;8.50;;;;;3.00;84.99;103247.97;5077509;27;45318;-76
2022/01/13 03:36:50;;;;;;;;;19.25;14.00;;;;;3.03;84.19;103246.41;5077200;28;45443;-76
2022/01/13 03:39:15;;;;;;;;;2.50;1.00;;;;;2.95;84.34;103241.63;5077710;27;45631;-76
2022/01/13 03:41:41;;;;;;;;;4.00;4.00;;;;;2.91;84.92;103251.00;5062303;27;46148;-75
2022/01/13 03:44:16;;;;;;;;;12.25;11.50;;;;;2.90;84.77;103249.22;5057223;28;45458;-76
2022/01/13 03:46:41;;;;;;;;;13.00;10.00;;;;;2.87;84.67;103246.44;5057055;28;45384;-76
2022/01/13 03:49:07;;;;;;;;;13.50;12.25;;;;;2.90;85.32;103243.06;5058781;28;45417;-76
2022/01/13 03:52:02;;;;;;;;;14.25;13.25;;;;;2.91;85.00;103243.16;5060658;28;45558;-74
2022/01/13 03:54:35;;;;;;;;;11.50;10.00;;;;;2.91;84.65;103245.75;5038956;28;45401;-76
2022/01/13 03:57:12;;;;;;;;;18.25;13.50;;;;;2.87;84.68;103241.22;5034255;28;45456;-76
2022/01/13 04:00:03;;;;;;;;;13.75;10.25;;;;;2.83;84.69;103241.84;5033257;28;45503;-76
2022/01/13 04:02:28;;;;;;;;;14.50;12.75;;;;;2.85;85.38;103248.06;5038486;28;45550;-76
2022/01/13 04:04:54;;;;;;;;;6.00;3.75;;;;;2.89;85.24;103244.78;5054374;28;45387;-76
2022/01/13 04:07:25;;;;;;;;;11.00;11.00;;;;;2.90;84.51;103241.38;5053618;28;50677;-76
2022/01/13 04:10:02;;;;;;;;;15.75;8.00;;;;;2.90;84.21;103241.38;5042648;28;45600;-76
2022/01/13 04:12:28;;;;;;;;;12.25;11.00;;;;;2.90;84.68;103241.38;5037683;28;45598;-76
2022/01/13 04:14:59;;;;;;;;;12.00;10.00;;;;;2.87;84.11;103248.13;5053194;28;45506;-76
2022/01/13 04:17:26;;;;;;;;;8.25;8.25;;;;;2.91;83.62;103247.50;5053951;28;45499;-76
2022/01/13 04:19:52;;;;;;;;;12.00;9.25;;;;;2.91;84.13;103245.75;5054178;28;45359;-76
2022/01/13 04:22:19;;;;;;;;;7.50;6.25;;;;;2.84;84.05;103241.03;5038099;28;46144;-76
2022/01/13 04:24:47;;;;;;;;;7.75;7.75;;;;;2.84;84.37;103247.16;5037162;28;45545;-76
2022/01/13 04:27:23;;;;;;;;;9.25;9.25;;;;;2.84;83.90;103246.28;5037748;28;45497;-77
2022/01/13 04:29:59;;;;;;;;;9.00;9.00;;;;;2.84;84.13;103243.66;5033673;28;45470;-78
2022/01/13 04:32:25;;;;;;;;;12.50;10.00;;;;;2.78;83.58;103235.47;5057240;28;45492;-76
2022/01/13 04:34:51;;;;;;;;;12.75;10.50;;;;;2.75;83.92;103224.84;5055927;28;45486;-76
2022/01/13 04:37:17;;;;;;;;;12.75;10.75;;;;;2.78;84.13;103225.00;5056273;28;45413;-76
2022/01/13 04:39:42;;;;;;;;;12.50;10.50;;;;;2.72;84.25;103224.69;5055774;28;45448;-76
2022/01/13 04:42:10;;;;;;;;;8.50;7.25;;;;;2.68;83.99;103223.63;5055470;28;46214;-76
2022/01/13 04:44:35;;;;;;;;;13.75;11.00;;;;;2.69;84.07;103227.13;5056530;28;45424;-75
2022/01/13 04:47:07;;;;;;;;;13.50;12.25;;;;;2.67;83.91;103220.13;5056169;28;45297;-76
2022/01/13 04:49:32;;;;;;;;;8.25;8.25;;;;;2.64;84.77;103227.78;5056184;28;45332;-76
2022/01/13 04:51:58;;;;;;;;;9.75;9.00;;;;;2.64;84.79;103221.66;5055831;28;45345;-77
2022/01/13 04:54:23;;;;;;;;;9.50;9.50;;;;;2.67;84.55;103233.19;5058593;28;45372;-75
2022/01/13 04:59:14;;;;;;;;;6.75;6.75;;;;;2.64;84.19;103230.41;5077054;28;45683;-77
2022/01/13 05:01:39;;;;;;;;;15.00;10.00;;;;;2.61;84.39;103238.06;5065887;27;45483;-76
2022/01/13 05:04:06;;;;;;;;;15.25;7.50;;;;;2.60;83.85;103240.59;5056736;28;45337;-76
2022/01/13 05:06:32;;;;;;;;;11.50;11.50;;;;;2.61;83.88;103239.75;5056172;28;45456;-77
2022/01/13 05:08:59;;;;;;;;;14.50;9.75;;;;;2.63;83.91;103241.66;5069222;28;45565;-74
2022/01/13 05:11:25;;;;;;;;;14.00;10.75;;;;;2.64;84.48;103253.91;5073800;28;45622;-76
2022/01/13 05:13:51;;;;;;;;;9.50;9.50;;;;;2.61;84.28;103243.31;5060380;27;45518;-76
2022/01/13 05:16:25;;;;;;;;;12.25;9.75;;;;;2.63;84.50;103254.72;5054252;28;45327;-76
2022/01/13 05:18:56;;;;;;;;;3.00;3.00;;;;;2.59;84.91;103247.53;5067872;28;45419;-76
2022/01/13 05:21:45;;;;;;;;;8.75;8.75;;;;;2.57;84.66;103245.66;5075487;27;45403;-76
2022/01/13 05:24:10;;;;;;;;;10.00;10.00;;;;;2.56;84.67;103249.06;5062439;27;45551;-76
2022/01/13 05:26:36;;;;;;;;;10.50;9.00;;;;;2.53;84.60;103249.78;5058992;28;45562;-76
2022/01/13 05:29:02;;;;;;;;;12.00;9.25;;;;;2.56;84.72;103249.06;5057404;28;45674;-76
2022/01/13 05:31:29;;;;;;;;;6.75;6.00;;;;;2.55;84.53;103239.44;5066132;28;45443;-76
2022/01/13 05:33:55;;;;;;;;;10.00;9.00;;;;;2.59;84.36;103241.41;5074361;28;45354;-76
2022/01/13 05:36:20;;;;;;;;;10.00;10.00;;;;;2.55;84.56;103237.75;5075975;28;45374;-77
2022/01/13 05:38:45;;;;;;;;;15.50;10.50;;;;;2.54;84.40;103246.38;5072684;27;45567;-76
2022/01/13 05:41:11;;;;;;;;;14.00;10.50;;;;;2.55;84.47;103248.19;5074526;27;45527;-76
2022/01/13 05:43:37;;;;;;;;;1.00;1.00;;;;;2.55;85.01;103223.75;5073227;27;45453;-75
2022/01/13 05:46:03;;;;;;;;;12.75;10.00;;;;;2.60;84.78;103235.38;5075211;27;45563;-76
2022/01/13 05:48:31;;;;;;;;;10.00;6.75;;;;;2.57;84.42;103228.25;5068984;27;45388;-76
2022/01/13 05:50:57;;;;;;;;;10.00;8.00;;;;;2.53;84.82;103228.91;5054776;28;46555;-77
2022/01/13 05:53:22;;;;;;;;;10.75;9.50;;;;;2.55;84.94;103237.75;5055084;28;45649;-75
2022/01/13 05:55:47;;;;;;;;;9.50;9.50;;;;;2.48;84.63;103232.97;5056181;28;45512;-75
2022/01/13 05:58:14;;;;;;;;;13.00;12.00;;;;;2.45;83.95;103240.66;5057569;28;45522;-76
2022/01/13 06:00:40;;;;;;;;;16.50;10.00;;;;;2.39;84.93;103241.19;5058442;28;45621;-76
2022/01/13 06:03:05;;;;;;;;;10.00;6.75;;;;;2.45;84.37;103240.66;5055677;28;45451;-76
2022/01/13 06:05:32;;;;;;;;;11.00;9.50;;;;;2.41;84.83;103234.34;5055308;28;45398;-77
2022/01/13 06:07:59;;;;;;;;;15.50;12.25;;;;;2.38;84.73;103239.38;5055293;28;45558;-76
2022/01/13 06:10:24;;;;;;;;;15.25;14.50;;;;;2.39;85.42;103229.88;5053735;28;46049;-77
2022/01/13 06:12:51;;;;;;;;;14.50;12.00;;;;;2.44;85.38;103244.06;5054218;28;45486;-76
2022/01/13 06:15:19;;;;;;;;;18.00;13.00;;;;;2.46;84.31;103245.03;5074153;28;45353;-76
2022/01/13 06:17:46;;;;;;;;;16.00;13.50;;;;;2.46;85.12;103239.81;5074664;27;45292;-76
2022/01/13 06:20:13;;;;;;;;;17.00;12.50;;;;;2.47;84.97;103236.41;5074013;27;46487;-76
2022/01/13 06:22:40;;;;;;;;;15.50;14.00;;;;;2.49;84.96;103245.25;5075187;27;45475;-77
2022/01/13 06:25:07;;;;;;;;;15.50;13.50;;;;;2.45;84.33;103243.25;5074659;27;45527;-76
2022/01/13 06:27:33;;;;;;;;;10.00;10.00;;;;;2.46;84.63;103243.34;5075847;27;45662;-76
2022/01/13 06:29:59;;;;;;;;;15.75;11.75;;;;;2.48;84.30;103246.03;5062812;28;45387;-77
2022/01/13 06:32:25;;;;;;;;;20.00;15.25;;;;;2.42;84.01;103245.69;5056129;28;45302;-76
2022/01/13 06:34:51;;;;;;;;;11.50;10.50;;;;;2.43;84.09;103244.88;5054754;28;45505;-78
2022/01/13 06:37:18;;;;;;;;;12.50;10.75;;;;;2.44;84.49;103244.06;5066842;28;45517;-76
2022/01/13 06:39:45;;;;;;;;;12.25;10.50;;;;;2.45;84.36;103238.03;5054059;28;45993;-76
2022/01/13 06:42:11;;;;;;;;;9.25;8.50;;;;;2.49;84.01;103247.84;5053657;28;45495;-77
2022/01/13 06:44:37;;;;;;;;;15.50;12.75;;;;;2.48;85.06;103246.03;5057741;28;45531;-75
2022/01/13 06:47:03;;;;;;;;;18.25;8.50;;;;;2.46;84.17;103229.38;5056508;28;45509;-76
2022/01/13 06:49:29;;;;;;;;;14.00;12.25;;;;;2.51;85.53;103234.88;5057063;28;46098;-77
2022/01/13 06:51:54;;;;;;;;;15.00;15.00;;;;;2.47;85.19;103224.22;5056490;28;45502;-76
2022/01/13 06:54:19;;;;;;;;;12.25;8.50;;;;;2.46;84.92;103229.38;5057343;28;45430;-76
2022/01/13 06:56:45;;;;;;;;;21.50;18.25;;;;;2.51;84.13;103247.94;5057289;28;45489;-77
2022/01/13 06:59:12;;;;;;;;;17.50;14.75;;;;;2.54;84.59;103241.16;5065025;28;46263;-77
2022/01/13 07:01:38;;;;;;;;;17.75;14.50;;;;;2.50;84.88;103236.56;5061073;28;45448;-78
2022/01/13 07:04:05;;;;;;;;;16.25;13.75;;;;;2.54;84.38;103253.31;5066642;28;45533;-77
2022/01/13 07:06:30;;;;;;;;;17.50;14.75;;;;;2.51;83.33;103246.22;5077261;28;45388;-77
2022/01/13 07:08:56;;;;;;;;;13.25;10.50;;;;;2.49;84.42;103255.69;5073787;28;45357;-80
2022/01/13 07:11:21;;;;;;;;;16.00;15.00;;;;;2.45;83.32;103244.16;5058166;27;45529;-75
2022/01/13 07:13:46;;;;;;;;;11.00;10.00;;;;;2.46;83.56;103247.66;5057500;28;45377;-77
2022/01/13 07:16:12;;;;;;;;;21.25;15.50;;;;;2.46;83.71;103245.03;5057640;28;45555;-77
2022/01/13 07:18:40;;;;;;;;;15.25;12.00;;;;;2.49;83.78;103255.69;5058581;28;45343;-76
2022/01/13 07:21:08;;;;;;;;;20.75;13.00;;;;;2.52;84.41;103248.03;5055978;28;45406;-76
2022/01/13 07:23:35;;;;;;;;;21.25;16.50;;;;;2.49;84.27;103250.47;5057283;28;45343;-75
2022/01/13 07:26:02;;;;;;;;;19.00;18.00;;;;;2.52;85.37;103250.63;5056684;28;45568;-75
2022/01/13 07:28:29;;;;;;;;;9.75;9.75;;;;;2.48;85.10;103246.94;5071139;27;45365;-77
2022/01/13 07:30:57;;;;;;;;;19.00;16.00;;;;;2.52;84.67;103254.94;5060931;28;45428;-75
2022/01/13 07:33:23;;;;;;;;;21.50;18.25;;;;;2.55;83.73;103247.25;5066790;27;45349;-76
2022/01/13 07:35:49;;;;;;;;;19.50;17.75;;;;;2.57;84.62;103258.72;5063401;27;45359;-76
2022/01/13 07:38:14;;;;;;;;;17.75;16.25;;;;;2.59;84.30;103265.78;5063848;28;46142;-77
2022/01/13 07:40:41;;;;;;;;;23.50;17.75;;;;;2.60;83.98;103261.50;5067979;28;45553;-77
2022/01/13 07:43:06;;;;;;;;;18.50;15.00;;;;;2.60;84.66;103256.28;5064624;28;45370;-75
2022/01/13 07:45:32;;;;;;;;;18.75;17.50;;;;;2.64;84.11;103248.69;5076113;27;45470;-76
2022/01/13 07:47:57;;;;;;;;;18.00;15.00;;;;;2.65;83.70;103249.56;5067358;28;46484;-76
2022/01/13 07:50:23;;;;;;;;;20.50;15.50;;;;;2.71;84.08;103264.69;5067325;28;45362;-77
2022/01/13 07:52:48;;;;;;;;;15.25;12.25;;;;;2.71;83.60;103256.88;5075989;27;45263;-77
2022/01/13 07:55:13;;;;;;;;;17.75;12.00;;;;;2.65;83.67;103250.47;5065466;27;45574;-77
2022/01/13 07:57:39;;;;;;;;;18.50;15.75;;;;;2.65;83.39;103254.81;5065520;28;46001;-76
2022/01/13 08:00:07;;;;;;;;;15.50;14.00;;;;;2.63;83.69;103246.00;5064899;28;45442;-76
2022/01/13 08:02:33;;;;;;;;;22.00;20.50;;;;;2.60;83.51;103231.03;5069923;27;45455;-76
2022/01/13 08:04:58;;;;;;;;;18.50;14.50;;;;;2.66;83.78;103241.81;5069560;28;45299;-77
2022/01/13 08:07:25;;;;;;;;;15.00;14.50;;;;;2.66;84.20;103236.59;5065268;28;46214;-80
2022/01/13 08:09:50;;;;;;;;;19.00;15.75;;;;;2.71;84.41;103234.25;5066114;28;45477;-79
2022/01/13 08:12:15;;;;;;;;;21.50;19.25;;;;;2.67;83.87;103238.41;5060580;27;45389;-79
2022/01/13 08:14:41;;;;;;;;;19.50;15.00;;;;;2.66;83.78;103247.06;5061761;28;45384;-80
2022/01/13 08:17:08;;;;;;;;;21.00;16.50;;;;;2.69;84.03;103245.41;5074245;27;46045;-79
2022/01/13 08:19:45;;;;;;;;;20.25;17.00;;;;;2.67;84.24;103247.94;5059169;27;45556;-79
2022/01/13 08:22:11;;;;;;;;;15.50;14.00;;;;;2.67;83.67;103243.63;5060456;28;45492;-80
2022/01/13 08:24:37;;;;;;;;;29.00;21.00;;;;;2.64;83.44;103230.41;5074167;28;45575;-79
2022/01/13 08:27:03;;;;;;;;;20.00;15.75;;;;;2.73;83.44;103243.03;5070710;27;46300;-80
2022/01/13 08:29:29;;;;;;;;;17.50;16.50;;;;;2.77;83.36;103244.13;5059190;28;45484;-80
2022/01/13 08:31:54;;;;;;;;;16.50;14.75;;;;;2.74;82.81;103223.06;5072821;27;45464;-79
2022/01/13 08:34:21;;;;;;;;;22.75;16.75;;;;;2.84;82.79;103241.03;5062472;28;45600;-80
2022/01/13 08:36:46;;;;;;;;;18.50;17.00;;;;;2.87;82.15;103236.00;5068416;27;45632;-79
2022/01/13 08:39:12;;;;;;;;;21.00;16.00;;;;;2.88;81.82;103242.09;5083537;27;45579;-80
2022/01/13 08:41:41;;;;;;;;;22.50;18.50;;;;;2.90;82.47;103241.38;5080800;27;45540;-81
2022/01/13 08:44:10;;;;;;;;;25.25;18.50;;;;;2.91;82.04;103234.44;5064284;27;45937;-80
2022/01/13 08:46:36;;;;;;;;;17.25;12.25;;;;;2.93;83.02;103236.31;5082010;27;45473;-79
2022/01/13 08:49:02;;;;;;;;;21.50;19.25;;;;;2.95;82.17;103242.50;5069991;27;45554;-79
2022/01/13 08:51:28;;;;;;;;;17.50;17.50;;;;;2.96;82.14;103236.47;5077657;27;45553;-75
2022/01/13 08:53:57;;;;;;;;;26.75;21.50;;;;;2.87;82.90;103220.31;5078927;27;45445;-80
2022/01/13 08:56:22;;;;;;;;;26.75;19.75;;;;;2.94;82.59;103240.72;5068869;27;46287;-80
2022/01/13 08:58:48;;;;;;;;;18.75;14.50;;;;;3.00;82.48;103243.66;5064977;28;45632;-77
2022/01/13 09:01:14;;;;;;;;;25.00;20.50;;;;;3.02;82.12;103238.50;5064761;27;45543;-79
2022/01/13 09:03:39;;;;;;;;;26.50;20.00;;;;;3.01;82.27;103231.50;5063534;27;45444;-77
2022/01/13 09:06:05;;;;;;;;;18.25;15.25;;;;;3.06;82.46;103239.59;5066141;27;45388;-79
2022/01/13 09:08:31;;;;;;;;;21.25;15.25;;;;;3.06;82.21;103250.94;5064257;27;45516;-80
2022/01/13 09:10:57;;;;;;;;;23.00;18.25;;;;;3.07;82.57;103257.03;5066882;28;45542;-76
2022/01/13 09:13:23;;;;;;;;;22.00;21.00;;;;;3.07;82.55;103259.66;5063238;28;45507;-76
2022/01/13 09:15:57;;;;;;;;;18.75;13.00;;;;;3.07;82.32;103252.72;5075542;27;46126;-80
2022/01/13 09:18:34;;;;;;;;;19.50;19.00;;;;;3.08;82.24;103269.31;5057128;28;45525;-80
2022/01/13 09:21:01;;;;;;;;;29.50;22.00;;;;;3.09;82.27;103258.03;5067879;27;45669;-79
2022/01/13 09:23:26;;;;;;;;;26.50;21.50;;;;;3.18;82.22;103263.75;5067633;28;45492;-78
2022/01/13 09:25:52;;;;;;;;;29.75;25.25;;;;;3.21;81.72;103258.69;5074045;27;47136;-80
2022/01/13 09:28:18;;;;;;;;;28.50;22.50;;;;;3.12;81.95;103253.88;5074761;27;45563;-78
2022/01/13 09:30:44;;;;;;;;;28.75;21.25;;;;;3.29;82.31;103280.00;5085797;27;45543;-80
2022/01/13 09:33:10;;;;;;;;;26.25;21.25;;;;;3.28;81.21;103272.97;5073518;28;45342;-80
2022/01/13 09:35:37;;;;;;;;;30.25;24.25;;;;;3.20;81.25;103246.44;5074101;28;46186;-82
2022/01/13 09:38:03;;;;;;;;;27.25;19.50;;;;;3.30;80.74;103277.47;5070798;28;45511;-80
2022/01/13 09:40:28;;;;;;;;;21.25;20.00;;;;;3.28;81.44;103281.72;5069444;28;45365;-80
2022/01/13 09:42:54;;;;;;;;;24.75;22.50;;;;;3.27;80.53;103290.38;5063810;28;45450;-80
2022/01/13 09:45:20;;;;;;;;;19.50;16.00;;;;;3.28;80.63;103286.97;5074244;28;46184;-81
2022/01/13 09:47:48;;;;;;;;;35.25;26.25;;;;;3.28;80.39;103291.28;5061684;28;45469;-81
2022/01/13 09:50:17;;;;;;;;;22.50;19.50;;;;;3.23;80.50;103283.19;5057273;28;45409;-76
2022/01/13 09:52:44;;;;;;;;;27.25;20.75;;;;;3.29;80.56;103291.34;5055483;27;45523;-75
2022/01/13 09:55:11;;;;;;;;;23.00;19.75;;;;;3.27;79.69;103279.94;5057838;28;45543;-76
2022/01/13 09:57:41;;;;;;;;;20.50;17.50;;;;;3.33;79.74;103289.81;5058493;28;45650;-76
2022/01/13 10:00:11;;;;;;;;;23.00;21.50;;;;;3.33;79.77;103298.56;5065056;28;45438;-75
2022/01/13 10:02:37;;;;;;;;;18.50;18.00;;;;;3.35;80.34;103303.88;5068211;28;46145;-75
2022/01/13 10:05:04;;;;;;;;;33.50;31.00;;;;;3.33;80.36;103290.72;5069326;27;45991;-75
2022/01/13 10:07:41;;;;;;;;;18.25;16.00;;;;;3.37;79.58;103292.69;5058094;28;45603;-76
2022/01/13 10:10:16;;;;;;;;;26.50;18.00;;;;;3.36;80.41;103284.75;5059984;27;45560;-76
2022/01/13 10:12:47;;;;;;;;;25.25;19.00;;;;;3.47;79.91;103275.75;5057134;28;45549;-76
2022/01/13 10:17:59;;;;;;;;;25.25;19.00;;;;;3.58;78.39;103286.75;5067799;28;45434;-76
2022/01/13 10:20:25;;;;;;;;;24.25;20.25;;;;;3.59;78.95;103296.41;5062601;28;45467;-75
2022/01/13 10:22:52;;;;;;;;;26.00;22.50;;;;;3.62;78.17;103296.56;5066625;27;45422;-76
2022/01/13 10:25:29;;;;;;;;;23.50;19.00;;;;;3.65;78.43;103298.44;5057931;28;46290;-75
2022/01/13 10:27:55;;;;;;;;;20.75;19.75;;;;;3.73;78.68;103286.66;5066225;27;45546;-81
2022/01/13 10:30:22;;;;;;;;;29.50;24.75;;;;;3.76;78.48;103281.56;5068176;28;45441;-78
2022/01/13 10:32:48;;;;;;;;;25.50;22.50;;;;;3.83;78.31;103293.28;5070123;27;45543;-77
2022/01/13 10:35:19;;;;;;;;;29.25;24.50;;;;;3.83;77.78;103294.16;5060670;28;45440;-76
2022/01/13 10:37:57;;;;;;;;;18.50;17.75;;;;;3.84;77.86;103279.34;5072740;28;45376;-77
2022/01/13 10:40:29;;;;;;;;;21.25;18.25;;;;;3.85;78.03;103283.78;5070290;27;45525;-75
2022/01/13 10:45:50;;;;;;;;;24.50;20.50;;;;;3.94;77.56;103281.63;5072504;28;45413;-77
2022/01/13 10:48:18;;;;;;;;;27.75;19.75;;;;;3.99;77.00;103282.72;5070462;28;45461;-77
2022/01/13 10:50:58;;;;;;;;;26.50;26.00;;;;;4.02;77.55;103271.53;5063990;27;45495;-80
2022/01/13 10:53:29;;;;;;;;;28.25;25.25;;;;;4.03;76.83;103282.06;5053374;28;45370;-80
2022/01/13 10:56:00;;;;;;;;;29.50;25.50;;;;;4.07;76.83;103270.06;5061864;28;46701;-81
2022/01/13 10:58:31;;;;;;;;;33.25;29.00;;;;;4.06;76.28;103263.00;5067438;27;45763;-77
2022/01/13 11:00:58;;;;;;;;;45.25;37.25;;;;;3.97;76.42;103246.84;5074076;27;45437;-78
2022/01/13 11:03:28;;;;;;;;;29.00;22.75;;;;;4.12;76.58;103265.03;5075160;28;45492;-77
2022/01/13 11:05:56;;;;;;;;;29.25;25.00;;;;;4.06;75.69;103261.28;5078757;27;45466;-77
2022/01/13 11:08:28;;;;;;;;;31.50;24.75;;;;;4.02;75.74;103261.94;5078238;27;45387;-78
2022/01/13 11:10:56;;;;;;;;;52.25;45.75;;;;;3.96;76.28;103259.03;5081627;27;45338;-77
2022/01/13 11:13:28;;;;;;;;;40.25;38.75;;;;;4.00;75.86;103260.97;5089153;27;45563;-77
2022/01/13 11:15:55;;;;;;;;;37.50;32.00;;;;;3.91;76.00;103229.13;5089773;27;45324;-76
2022/01/13 11:18:24;;;;;;;;;45.50;34.00;;;;;4.04;75.86;103252.47;5084928;27;45026;-77
2022/01/13 11:20:50;;;;;;;;;35.00;24.75;;;;;3.92;75.52;103236.16;5077155;27;45252;-75
2022/01/13 11:23:18;;;;;;;;;33.00;30.50;;;;;4.01;75.24;103252.31;5078248;27;45303;-76
2022/01/13 11:25:46;;;;;;;;;32.75;26.00;;;;;4.06;75.79;103257.78;5060281;27;46132;-75
2022/01/13 11:28:12;;;;;;;;;38.00;31.00;;;;;4.22;75.56;103251.56;5068485;28;45435;-76
2022/01/13 11:30:38;;;;;;;;;28.75;22.75;;;;;4.26;75.21;103241.31;5070078;27;45362;-77
2022/01/13 11:33:04;;;;;;;;;22.25;21.50;;;;;4.38;74.80;103248.88;5067008;28;45338;-77
2022/01/13 11:35:35;;;;;;;;;39.00;29.50;;;;;4.45;74.75;103245.72;5059384;28;46109;-77
2022/01/13 11:38:03;;;;;;;;;31.50;26.25;;;;;4.54;74.64;103239.13;5071425;28;45558;-78
2022/01/13 11:40:29;;;;;;;;;26.25;22.25;;;;;4.59;74.23;103233.28;5068658;27;45388;-77
2022/01/13 11:42:55;;;;;;;;;33.00;29.50;;;;;4.51;73.98;103244.22;5066828;28;45574;-77
2022/01/13 11:45:22;;;;;;;;;30.50;27.75;;;;;4.49;74.27;103232.78;5049043;28;46278;-77
2022/01/13 11:47:48;;;;;;;;;37.50;32.25;;;;;4.38;74.53;103233.16;5062177;28;45547;-77